createdAt,value
2019-01-12T00:01:35.270Z,13.45
2019-01-12T00:04:02.765Z,15.75
2019-01-12T00:06:30.237Z,14.07
2019-01-12T00:08:57.765Z,14.05
2019-01-12T00:11:25.286Z,13.60
2019-01-12T00:13:52.777Z,15.18
2019-01-12T00:16:21.476Z,16.20
2019-01-12T00:18:49.235Z,15.65
2019-01-12T00:21:16.807Z,16.52
2019-01-12T00:23:44.316Z,16.15
2019-01-12T00:26:11.808Z,17.80
2019-01-12T00:28:39.301Z,16.52
2019-01-12T00:31:06.807Z,16.02
2019-01-12T00:33:34.303Z,11.75
2019-01-12T00:36:01.794Z,15.15
2019-01-12T00:38:29.291Z,15.40
2019-01-12T00:40:56.813Z,16.12
2019-01-12T00:43:24.293Z,18.00
2019-01-12T00:45:51.790Z,17.40
2019-01-12T00:48:19.301Z,17.73
2019-01-12T00:50:46.776Z,19.32
2019-01-12T00:53:14.256Z,16.32
2019-01-12T00:55:41.781Z,16.80
2019-01-12T00:58:09.262Z,16.52
2019-01-12T01:00:36.743Z,15.20
2019-01-12T01:03:04.285Z,17.50
2019-01-12T01:05:31.832Z,16.77
2019-01-12T01:07:59.313Z,15.75
2019-01-12T01:10:26.820Z,16.65
2019-01-12T01:12:54.301Z,19.85
2019-01-12T01:15:21.784Z,17.67
2019-01-12T01:17:49.313Z,16.60
2019-01-12T01:20:17.181Z,15.78
2019-01-12T01:22:44.662Z,16.85
2019-01-12T01:25:12.488Z,17.40
2019-01-12T01:27:39.968Z,16.12
2019-01-12T01:30:08.922Z,15.63
2019-01-12T01:32:36.449Z,17.35
2019-01-12T01:35:04.729Z,16.97
2019-01-12T01:37:32.295Z,15.68
2019-01-12T01:39:59.854Z,15.68
2019-01-12T01:42:27.327Z,16.00
2019-01-12T01:44:54.799Z,16.00
2019-01-12T01:47:22.318Z,17.80
2019-01-12T01:49:49.865Z,16.55
2019-01-12T01:52:17.368Z,15.28
2019-01-12T01:54:44.867Z,15.63
2019-01-12T01:57:12.346Z,18.32
2019-01-12T01:59:39.901Z,16.07
2019-01-12T02:02:07.404Z,13.72
2019-01-12T02:04:34.889Z,13.83
2019-01-12T02:07:02.381Z,13.32
2019-01-12T02:09:29.889Z,15.60
2019-01-12T02:11:57.365Z,13.68
2019-01-12T02:14:24.883Z,13.38
2019-01-12T02:16:52.376Z,12.58
2019-01-12T02:19:19.844Z,11.25
2019-01-12T02:21:47.363Z,11.38
2019-01-12T02:24:14.849Z,12.80
2019-01-12T02:26:42.331Z,12.30
2019-01-12T02:29:09.846Z,11.53
2019-01-12T02:31:37.350Z,12.30
2019-01-12T02:34:04.822Z,12.00
2019-01-12T02:36:32.398Z,12.58
2019-01-12T02:38:59.924Z,12.88
2019-01-12T02:41:27.415Z,11.78
2019-01-12T02:43:54.964Z,12.33
2019-01-12T02:46:22.539Z,13.13
2019-01-12T02:48:50.055Z,12.93
2019-01-12T02:51:17.539Z,12.88
2019-01-12T02:53:45.082Z,12.35
2019-01-12T02:56:13.124Z,13.93
2019-01-12T02:58:40.579Z,13.28
2019-01-12T03:01:08.139Z,13.43
2019-01-12T03:03:35.632Z,11.57
2019-01-12T03:06:03.128Z,12.85
2019-01-12T03:08:30.708Z,12.70
2019-01-12T03:10:58.183Z,11.45
2019-01-12T03:13:26.011Z,12.30
2019-01-12T03:15:53.513Z,12.25
2019-01-12T03:18:20.982Z,11.75
2019-01-12T03:20:48.456Z,11.53
2019-01-12T03:23:16.012Z,13.40
2019-01-12T03:25:43.497Z,13.35
2019-01-12T03:28:10.967Z,12.75
2019-01-12T03:30:38.492Z,12.60
2019-01-12T03:33:05.958Z,12.35
2019-01-12T03:35:33.434Z,12.93
2019-01-12T03:38:00.937Z,12.98
2019-01-12T03:40:28.418Z,12.70
2019-01-12T03:42:55.961Z,12.82
2019-01-12T03:45:23.537Z,13.05
2019-01-12T03:47:51.094Z,12.20
2019-01-12T03:50:18.770Z,13.13
2019-01-12T03:52:46.272Z,13.72
2019-01-12T03:55:13.749Z,13.78
2019-01-12T03:57:41.238Z,12.95
2019-01-12T04:00:10.210Z,13.35
2019-01-12T04:02:37.880Z,12.90
2019-01-12T04:05:05.812Z,13.35
2019-01-12T04:07:33.316Z,11.93
2019-01-12T04:10:00.820Z,11.53
2019-01-12T04:12:28.352Z,11.28
2019-01-12T04:14:55.883Z,13.90
2019-01-12T04:17:23.444Z,11.20
2019-01-12T04:19:50.905Z,11.75
2019-01-12T04:22:18.414Z,11.80
2019-01-12T04:24:45.886Z,12.45
2019-01-12T04:27:13.362Z,13.10
2019-01-12T04:29:40.878Z,14.10
2019-01-12T04:32:08.356Z,12.65
2019-01-12T04:34:35.854Z,11.78
2019-01-12T04:37:03.403Z,12.05
2019-01-12T04:39:30.876Z,10.88
2019-01-12T04:41:58.351Z,11.83
2019-01-12T04:44:25.847Z,11.45
2019-01-12T04:46:53.328Z,12.53
2019-01-12T04:49:20.814Z,11.95
2019-01-12T04:51:48.309Z,11.45
2019-01-12T04:54:15.800Z,11.45
2019-01-12T04:56:43.280Z,11.78
2019-01-12T04:59:10.800Z,11.57
2019-01-12T05:01:38.279Z,10.38
2019-01-12T05:04:05.781Z,10.53
2019-01-12T05:06:33.296Z,11.85
2019-01-12T05:09:00.773Z,10.93
2019-01-12T05:11:28.276Z,10.95
2019-01-12T05:13:55.780Z,10.88
2019-01-12T05:16:23.252Z,10.75
2019-01-12T05:18:50.756Z,11.88
2019-01-12T05:21:18.233Z,10.82
2019-01-12T05:23:45.769Z,11.18
2019-01-12T05:26:13.279Z,10.82
2019-01-12T05:28:40.761Z,10.93
2019-01-12T05:31:08.262Z,12.82
2019-01-12T05:33:35.778Z,10.93
2019-01-12T05:36:03.280Z,10.80
2019-01-12T05:38:30.725Z,10.80
2019-01-12T05:40:58.241Z,10.38
2019-01-12T05:43:25.728Z,9.65
2019-01-12T05:45:53.204Z,9.35
2019-01-12T05:48:20.749Z,9.08
2019-01-12T05:50:48.181Z,9.03
2019-01-12T05:53:15.652Z,8.55
2019-01-12T05:55:43.148Z,9.18
2019-01-12T05:58:10.700Z,9.80
2019-01-12T06:00:38.192Z,10.25
2019-01-12T06:03:05.756Z,9.60
2019-01-12T06:05:33.244Z,10.23
2019-01-12T06:08:00.711Z,10.50
2019-01-12T06:10:28.223Z,10.10
2019-01-12T06:12:55.703Z,9.53
2019-01-12T06:15:23.178Z,9.18
2019-01-12T06:17:50.708Z,10.55
2019-01-12T06:20:18.161Z,10.80
2019-01-12T06:22:45.721Z,9.25
2019-01-12T06:25:13.208Z,9.68
2019-01-12T06:27:40.683Z,8.68
2019-01-12T06:30:12.459Z,9.00
2019-01-12T06:32:40.044Z,8.90
2019-01-12T06:35:07.773Z,8.75
2019-01-12T06:37:35.312Z,8.08
2019-01-12T06:40:03.118Z,8.35
2019-01-12T06:42:32.218Z,9.60
2019-01-12T06:44:59.697Z,9.43
2019-01-12T06:47:27.202Z,7.70
2019-01-12T06:49:54.706Z,9.55
2019-01-12T06:52:22.170Z,7.87
2019-01-12T06:54:49.655Z,7.67
2019-01-12T06:57:17.190Z,9.08
2019-01-12T06:59:44.692Z,7.75
2019-01-12T07:02:12.160Z,7.97
2019-01-12T07:04:39.680Z,8.68
2019-01-12T07:07:07.169Z,8.95
2019-01-12T07:09:34.641Z,8.08
2019-01-12T07:12:02.114Z,9.43
2019-01-12T07:14:29.630Z,8.83
2019-01-12T07:16:57.088Z,7.22
2019-01-12T07:19:24.552Z,7.75
2019-01-12T07:21:52.131Z,7.92
2019-01-12T07:24:19.609Z,7.25
2019-01-12T07:26:47.084Z,7.72
2019-01-12T07:29:14.597Z,8.33
2019-01-12T07:31:42.063Z,8.83
2019-01-12T07:34:09.541Z,7.67
2019-01-12T07:36:37.031Z,8.78
2019-01-12T07:39:06.209Z,7.50
2019-01-12T07:41:33.753Z,8.13
2019-01-12T07:44:01.272Z,8.50
2019-01-12T07:46:28.727Z,6.90
2019-01-12T07:48:56.199Z,6.90
2019-01-12T07:51:23.721Z,8.28
2019-01-12T07:53:51.188Z,8.00
2019-01-12T07:56:24.370Z,9.05
2019-01-12T07:58:47.888Z,8.43
2019-01-12T08:01:15.467Z,8.95
2019-01-12T08:03:42.948Z,8.23
2019-01-12T08:06:10.530Z,9.05
2019-01-12T08:08:38.032Z,8.45
2019-01-12T08:11:05.512Z,7.65
2019-01-12T08:13:33.013Z,8.30
2019-01-12T08:16:00.556Z,8.35
2019-01-12T08:18:28.032Z,9.23
2019-01-12T08:20:55.630Z,8.33
2019-01-12T08:23:23.123Z,8.58
2019-01-12T08:25:50.788Z,8.90
2019-01-12T08:28:18.265Z,10.00
2019-01-12T08:30:46.482Z,10.80
2019-01-12T08:33:14.188Z,9.90
2019-01-12T08:35:41.694Z,11.22
2019-01-12T08:38:09.268Z,11.00
2019-01-12T08:40:36.813Z,12.03
2019-01-12T08:43:04.334Z,11.60
2019-01-12T08:45:31.815Z,11.08
2019-01-12T08:47:59.289Z,10.80
2019-01-12T08:50:26.824Z,11.12
2019-01-12T08:52:54.277Z,12.10
2019-01-12T08:55:21.847Z,13.75
2019-01-12T08:57:49.353Z,12.55
2019-01-12T09:00:17.726Z,11.88
2019-01-12T09:02:45.665Z,11.97
2019-01-12T09:05:13.265Z,13.30
2019-01-12T09:07:40.864Z,12.05
2019-01-12T09:10:11.806Z,11.80
2019-01-12T09:12:39.341Z,10.78
2019-01-12T09:15:07.798Z,10.90
2019-01-12T09:17:35.296Z,10.97
2019-01-12T09:20:03.296Z,11.73
2019-01-12T09:22:30.781Z,12.73
2019-01-12T09:24:58.278Z,13.73
2019-01-12T09:27:25.820Z,12.70
2019-01-12T09:29:53.293Z,13.23
2019-01-12T09:32:20.782Z,15.33
2019-01-12T09:34:48.423Z,13.27
2019-01-12T09:37:15.876Z,15.47
2019-01-12T09:39:43.380Z,15.43
2019-01-12T09:42:11.885Z,14.67
2019-01-12T09:44:39.560Z,15.80
2019-01-12T09:47:07.046Z,14.37
2019-01-12T09:49:34.562Z,14.47
2019-01-12T09:52:02.109Z,15.47
2019-01-12T09:54:29.654Z,15.40
2019-01-12T09:56:57.152Z,14.33
2019-01-12T09:59:25.115Z,15.50
2019-01-12T10:01:52.652Z,15.03
2019-01-12T10:04:20.151Z,14.50
2019-01-12T10:06:47.660Z,14.73
2019-01-12T10:09:15.133Z,15.17
2019-01-12T10:11:42.637Z,14.30
2019-01-12T10:14:10.115Z,14.50
2019-01-12T10:16:37.587Z,14.23
2019-01-12T10:19:05.079Z,15.13
2019-01-12T10:21:32.556Z,16.13
2019-01-12T10:24:00.078Z,15.50
2019-01-12T10:26:27.549Z,15.43
2019-01-12T10:28:55.040Z,13.83
2019-01-12T10:31:22.540Z,14.60
2019-01-12T10:33:50.038Z,13.00
2019-01-12T10:36:17.498Z,12.90
2019-01-12T10:38:45.015Z,12.73
2019-01-12T10:41:12.478Z,12.00
2019-01-12T10:43:39.929Z,13.50
2019-01-12T10:46:07.420Z,11.60
2019-01-12T10:48:34.892Z,11.47
2019-01-12T10:51:02.316Z,11.07
2019-01-12T10:53:29.877Z,10.50
2019-01-12T10:55:57.339Z,10.57
2019-01-12T10:58:24.821Z,10.80
2019-01-12T11:00:52.297Z,9.77
2019-01-12T11:03:19.769Z,9.90
2019-01-12T11:05:47.328Z,9.63
2019-01-12T11:08:14.819Z,9.47
2019-01-12T11:10:42.348Z,8.53
2019-01-12T11:13:09.811Z,8.83
2019-01-12T11:15:37.304Z,8.70
2019-01-12T11:18:05.087Z,8.17
2019-01-12T11:20:32.604Z,10.00
2019-01-12T11:23:00.012Z,9.33
2019-01-12T11:25:27.512Z,8.43
2019-01-12T11:27:54.976Z,9.23
2019-01-12T11:30:22.427Z,9.20
2019-01-12T11:32:49.921Z,10.50
2019-01-12T11:35:17.397Z,10.70
2019-01-12T11:37:44.854Z,10.77
2019-01-12T11:40:13.768Z,11.17
2019-01-12T11:42:41.231Z,10.83
2019-01-12T11:45:08.764Z,10.13
2019-01-12T11:47:36.255Z,10.13
2019-01-12T11:50:05.212Z,10.90
2019-01-12T11:52:32.697Z,10.70
2019-01-12T11:55:00.230Z,10.90
2019-01-12T11:57:27.679Z,10.80
2019-01-12T11:59:55.951Z,10.70
2019-01-12T12:02:23.435Z,11.73
2019-01-12T12:04:50.902Z,10.13
2019-01-12T12:07:18.396Z,10.70
2019-01-12T12:09:45.874Z,11.37
2019-01-12T12:12:13.343Z,11.07
2019-01-12T12:14:40.854Z,10.00
2019-01-12T12:17:08.318Z,9.47
2019-01-12T12:19:35.853Z,9.40
2019-01-12T12:22:03.528Z,10.60
2019-01-12T12:24:30.999Z,10.00
2019-01-12T12:26:58.461Z,9.23
2019-01-12T12:29:25.951Z,9.00
2019-01-12T12:31:53.414Z,9.13
2019-01-12T12:34:20.807Z,8.90
2019-01-12T12:36:49.507Z,9.13
2019-01-12T12:39:17.236Z,9.80
2019-01-12T12:41:44.695Z,8.40
2019-01-12T12:44:12.208Z,9.43
2019-01-12T12:46:39.744Z,9.37
2019-01-12T12:49:07.233Z,10.07
2019-01-12T12:51:34.734Z,8.87
2019-01-12T12:54:02.195Z,9.07
2019-01-12T12:56:29.735Z,9.47
2019-01-12T12:58:57.243Z,10.17
2019-01-12T13:01:24.687Z,9.30
2019-01-12T13:03:52.224Z,9.93
2019-01-12T13:06:19.718Z,9.00
2019-01-12T13:08:48.491Z,10.07
2019-01-12T13:11:16.432Z,9.27
2019-01-12T13:13:43.936Z,10.10
2019-01-12T13:16:11.401Z,9.57
2019-01-12T13:18:38.872Z,10.50
2019-01-12T13:21:06.495Z,9.03
2019-01-12T13:23:33.952Z,9.17
2019-01-12T13:26:01.412Z,8.80
2019-01-12T13:28:28.911Z,8.50
2019-01-12T13:30:56.453Z,9.30
2019-01-12T13:33:23.928Z,9.60
2019-01-12T13:35:51.434Z,9.20
2019-01-12T13:38:18.973Z,8.97
2019-01-12T13:40:46.452Z,8.60
2019-01-12T13:43:13.947Z,9.60
2019-01-12T13:45:41.487Z,8.67
2019-01-12T13:48:08.994Z,8.73
2019-01-12T13:50:36.529Z,8.67
2019-01-12T13:53:03.985Z,8.80
2019-01-12T13:55:31.438Z,8.40
2019-01-12T13:57:58.884Z,9.90
2019-01-12T14:00:27.637Z,8.77
2019-01-12T14:02:55.097Z,9.67
2019-01-12T14:05:22.592Z,8.90
2019-01-12T14:07:56.281Z,9.37
2019-01-12T14:10:19.555Z,9.33
2019-01-12T14:12:47.028Z,8.47
2019-01-12T14:15:15.611Z,9.50
2019-01-12T14:17:43.069Z,9.13
2019-01-12T14:20:12.038Z,9.27
2019-01-12T14:22:39.486Z,9.77
2019-01-12T14:25:06.947Z,9.33
2019-01-12T14:27:34.445Z,8.77
2019-01-12T14:30:01.923Z,11.20
2019-01-12T14:32:30.104Z,8.67
2019-01-12T14:34:57.689Z,9.70
2019-01-12T14:37:25.177Z,8.63
2019-01-12T14:39:52.639Z,8.77
2019-01-12T14:42:20.110Z,8.63
2019-01-12T14:44:47.693Z,9.03
2019-01-12T14:47:15.136Z,9.90
2019-01-12T14:49:42.690Z,10.20
2019-01-12T14:52:10.301Z,9.73
2019-01-12T14:54:37.852Z,10.43
2019-01-12T14:57:05.360Z,10.00
2019-01-12T14:59:32.847Z,9.83
2019-01-12T15:02:00.336Z,10.03
2019-01-12T15:04:27.978Z,10.10
2019-01-12T15:06:55.412Z,9.30
2019-01-12T15:09:22.868Z,10.23
2019-01-12T15:11:50.356Z,9.30
2019-01-12T15:14:17.894Z,8.37
2019-01-12T15:16:45.419Z,8.53
2019-01-12T15:19:13.027Z,9.20
2019-01-12T15:21:40.523Z,7.53
2019-01-12T15:24:08.022Z,8.57
2019-01-12T15:26:36.947Z,7.60
2019-01-12T15:29:04.636Z,8.97
2019-01-12T15:31:32.167Z,8.03
2019-01-12T15:33:59.634Z,8.77
2019-01-12T15:36:27.151Z,8.47
2019-01-12T15:38:54.642Z,8.90
2019-01-12T15:41:22.090Z,9.27
2019-01-12T15:43:49.592Z,8.60
2019-01-12T15:46:17.066Z,8.60
2019-01-12T15:48:44.520Z,9.60
2019-01-12T15:51:12.007Z,8.70
2019-01-12T15:53:39.567Z,8.87
2019-01-12T15:56:07.042Z,10.13
2019-01-12T15:58:34.592Z,10.20
2019-01-12T16:01:02.059Z,10.97
2019-01-12T16:03:29.533Z,8.93
2019-01-12T16:05:57.048Z,9.17
2019-01-12T16:08:24.523Z,9.33
2019-01-12T16:10:51.980Z,8.20
2019-01-12T16:13:19.471Z,10.20
2019-01-12T16:15:47.001Z,9.80
2019-01-12T16:18:14.411Z,10.50
2019-01-12T16:20:42.142Z,10.00
2019-01-12T16:23:09.701Z,10.53
2019-01-12T16:25:37.189Z,9.80
2019-01-12T16:28:04.701Z,9.33
2019-01-12T16:30:32.220Z,9.73
2019-01-12T16:33:00.520Z,10.60
2019-01-12T16:35:28.029Z,11.20
2019-01-12T16:37:55.505Z,11.90
2019-01-12T16:40:24.174Z,11.10
2019-01-12T16:42:51.866Z,10.53
2019-01-12T16:45:19.385Z,10.70
2019-01-12T16:47:46.934Z,11.73
2019-01-12T16:50:14.432Z,10.80
2019-01-12T16:52:41.929Z,11.30
2019-01-12T16:55:10.622Z,11.23
2019-01-12T16:57:38.135Z,12.80
2019-01-12T17:00:07.148Z,12.20
2019-01-12T17:02:34.622Z,11.30
2019-01-12T17:05:02.301Z,12.00
2019-01-12T17:07:29.859Z,10.60
2019-01-12T17:09:57.377Z,12.07
2019-01-12T17:12:24.880Z,13.20
2019-01-12T17:14:52.356Z,17.30
2019-01-12T17:17:19.908Z,15.07
2019-01-12T17:19:47.480Z,16.53
2019-01-12T17:22:14.948Z,15.27
2019-01-12T17:24:42.470Z,15.03
2019-01-12T17:27:09.978Z,16.70
2019-01-12T17:29:37.492Z,13.57
2019-01-12T17:32:04.992Z,14.60
2019-01-12T17:34:32.464Z,15.17
2019-01-12T17:37:00.028Z,15.20
2019-01-12T17:39:27.581Z,15.93
2019-01-12T17:41:55.031Z,17.40
2019-01-12T17:44:22.548Z,15.80
2019-01-12T17:46:50.026Z,15.10
2019-01-12T17:49:17.489Z,14.20
2019-01-12T17:51:45.006Z,15.03
2019-01-12T17:54:12.472Z,15.27
2019-01-12T17:56:41.600Z,15.53
2019-01-12T17:59:09.119Z,15.50
2019-01-12T18:01:36.592Z,15.90
2019-01-12T18:04:04.272Z,15.10
2019-01-12T18:06:31.855Z,16.10
2019-01-12T18:08:59.413Z,16.90
2019-01-12T18:11:26.900Z,15.60
2019-01-12T18:13:54.420Z,15.67
2019-01-12T18:16:21.988Z,16.43
2019-01-12T18:18:49.446Z,16.80
2019-01-12T18:21:16.951Z,16.70
2019-01-12T18:23:44.513Z,16.77
2019-01-12T18:26:12.014Z,16.60
2019-01-12T18:28:39.500Z,17.43
2019-01-12T18:31:06.987Z,16.43
2019-01-12T18:33:34.486Z,16.60
2019-01-12T18:36:02.056Z,16.30
2019-01-12T18:38:29.540Z,15.93
2019-01-12T18:40:57.107Z,16.57
2019-01-12T18:43:24.581Z,17.10
2019-01-12T18:45:52.064Z,13.57
2019-01-12T18:48:19.626Z,14.40
2019-01-12T18:50:47.109Z,13.67
2019-01-12T18:53:14.575Z,15.30
2019-01-12T18:55:42.171Z,16.50
2019-01-12T18:58:09.628Z,14.30
2019-01-12T19:00:37.181Z,15.93
2019-01-12T19:03:04.689Z,16.40
2019-01-12T19:05:32.155Z,17.60
2019-01-12T19:07:59.716Z,15.47
2019-01-12T19:10:27.280Z,15.47
2019-01-12T19:12:54.882Z,14.07
2019-01-12T19:15:26.119Z,16.00
2019-01-12T19:17:53.583Z,16.10
2019-01-12T19:20:21.101Z,15.50
2019-01-12T19:22:48.568Z,14.03
2019-01-12T19:25:16.043Z,15.30
2019-01-12T19:27:43.578Z,14.60
2019-01-12T19:30:12.612Z,16.40
2019-01-12T19:32:40.108Z,14.80
2019-01-12T19:35:07.874Z,15.67
2019-01-12T19:37:35.364Z,15.17
2019-01-12T19:40:02.828Z,16.40
2019-01-12T19:42:31.421Z,16.80
2019-01-12T19:44:59.184Z,14.90
2019-01-12T19:47:26.708Z,15.70
2019-01-12T19:49:54.216Z,15.50
2019-01-12T19:52:21.708Z,15.67
2019-01-12T19:54:49.175Z,13.57
2019-01-12T19:57:16.686Z,14.47
2019-01-12T19:59:44.173Z,11.80
2019-01-12T20:02:11.639Z,13.73
2019-01-12T20:04:39.192Z,12.30
2019-01-12T20:07:06.666Z,14.37
2019-01-12T20:09:34.216Z,16.57
2019-01-12T20:12:02.568Z,14.43
2019-01-12T20:14:30.123Z,14.83
2019-01-12T20:16:57.703Z,14.60
2019-01-12T20:19:25.205Z,14.20
2019-01-12T20:21:52.677Z,13.23
2019-01-12T20:24:20.135Z,15.70
2019-01-12T20:26:47.654Z,15.60
2019-01-12T20:29:21.136Z,16.50
2019-01-12T20:31:48.478Z,15.60
2019-01-12T20:34:20.632Z,15.53
2019-01-12T20:37:06.000Z,16.90
2019-01-12T20:39:37.693Z,16.33
2019-01-12T20:42:15.787Z,17.43
2019-01-12T20:44:47.547Z,18.67
2019-01-12T20:47:16.595Z,17.73
2019-01-12T20:49:46.739Z,17.47
2019-01-12T20:52:15.804Z,17.80
2019-01-12T20:54:54.276Z,15.83
2019-01-12T20:57:23.274Z,15.90
2019-01-12T21:00:10.789Z,15.37
2019-01-12T21:02:39.832Z,15.70
2019-01-12T21:05:17.544Z,14.77
2019-01-12T21:07:49.207Z,14.57
2019-01-12T21:10:18.218Z,15.30
2019-01-12T21:13:05.168Z,15.43
2019-01-12T21:15:34.184Z,16.13
2019-01-12T21:18:01.738Z,14.77
2019-01-12T21:20:29.239Z,14.20
2019-01-12T21:22:56.832Z,14.93
2019-01-12T21:25:24.372Z,16.87
2019-01-12T21:27:51.939Z,16.87
2019-01-12T21:30:19.478Z,15.87
2019-01-12T21:32:46.954Z,14.77
2019-01-12T21:35:14.459Z,19.33
2019-01-12T21:37:41.936Z,18.00
2019-01-12T21:40:10.586Z,16.57
2019-01-12T21:42:38.086Z,15.87
2019-01-12T21:45:07.164Z,17.00
2019-01-12T21:47:34.633Z,15.67
2019-01-12T21:50:02.180Z,16.07
2019-01-12T21:52:29.800Z,16.17
2019-01-12T21:54:57.267Z,16.27
2019-01-12T21:57:24.808Z,15.33
2019-01-12T21:59:52.344Z,14.73
2019-01-12T22:02:19.840Z,13.23
2019-01-12T22:04:47.381Z,13.53
2019-01-12T22:07:14.838Z,12.97
2019-01-12T22:09:42.307Z,12.67
2019-01-12T22:12:10.392Z,13.87
2019-01-12T22:14:37.891Z,12.40
2019-01-12T22:17:05.363Z,13.90
2019-01-12T22:19:32.936Z,11.77
2019-01-12T22:22:00.586Z,13.80
2019-01-12T22:24:28.076Z,12.23
2019-01-12T22:26:55.537Z,13.03
2019-01-12T22:29:23.043Z,13.70
2019-01-12T22:31:50.532Z,17.17
2019-01-12T22:34:18.065Z,15.80
2019-01-12T22:36:45.489Z,12.63
2019-01-12T22:39:12.974Z,15.80
2019-01-12T22:41:40.435Z,14.93
2019-01-12T22:44:07.960Z,15.67
2019-01-12T22:46:35.435Z,13.60
2019-01-12T22:49:02.920Z,14.37
2019-01-12T22:51:30.437Z,15.77
2019-01-12T22:53:57.956Z,15.63
2019-01-12T22:56:25.416Z,15.43
2019-01-12T22:58:52.920Z,15.10
2019-01-12T23:01:21.866Z,15.60
2019-01-12T23:03:49.668Z,15.83
2019-01-12T23:06:17.180Z,17.03
2019-01-12T23:08:44.758Z,17.27
2019-01-12T23:11:12.445Z,16.77
2019-01-12T23:13:39.918Z,18.00
2019-01-12T23:16:07.468Z,17.53
2019-01-12T23:18:35.028Z,18.70
2019-01-12T23:21:02.616Z,16.60
2019-01-12T23:23:30.149Z,15.97
2019-01-12T23:25:57.615Z,16.33
2019-01-12T23:28:25.148Z,15.70
2019-01-12T23:30:52.683Z,14.83
2019-01-12T23:33:20.165Z,15.37
2019-01-12T23:35:47.691Z,17.00
2019-01-12T23:38:15.165Z,16.60
2019-01-12T23:40:42.727Z,17.97
2019-01-12T23:43:10.233Z,17.07
2019-01-12T23:45:37.983Z,17.20
2019-01-12T23:48:05.456Z,16.67
2019-01-12T23:50:32.974Z,16.90
2019-01-12T23:53:00.459Z,18.33
2019-01-12T23:55:28.014Z,18.10
2019-01-12T23:57:55.513Z,17.93
